createdAt,value
2017-12-19T00:01:47.949Z,12.85
2017-12-19T00:04:16.072Z,12.40
2017-12-19T00:06:48.134Z,13.90
2017-12-19T00:09:16.293Z,9.00
2017-12-19T00:11:45.169Z,11.02
2017-12-19T00:14:13.299Z,9.23
2017-12-19T00:16:41.410Z,9.65
2017-12-19T00:19:09.562Z,10.00
2017-12-19T00:21:38.827Z,9.15
2017-12-19T00:24:06.976Z,11.50
2017-12-19T00:26:35.085Z,11.10
2017-12-19T00:29:03.222Z,12.20
2017-12-19T00:31:31.351Z,12.13
2017-12-19T00:34:00.276Z,10.63
2017-12-19T00:36:28.411Z,12.18
2017-12-19T00:38:57.304Z,12.85
2017-12-19T00:41:26.276Z,11.40
2017-12-19T00:43:54.769Z,12.03
2017-12-19T00:46:22.884Z,11.65
2017-12-19T00:48:51.024Z,12.25
2017-12-19T00:51:19.903Z,12.27
2017-12-19T00:53:48.106Z,12.45
2017-12-19T00:56:16.980Z,16.05
2017-12-19T00:58:45.918Z,11.80
2017-12-19T01:01:14.027Z,15.07
2017-12-19T01:03:42.923Z,12.85
2017-12-19T01:06:11.805Z,12.57
2017-12-19T01:08:39.952Z,10.60
2017-12-19T01:11:08.067Z,17.02
2017-12-19T01:13:36.962Z,11.30
2017-12-19T01:16:05.131Z,14.18
2017-12-19T01:18:34.052Z,11.70
2017-12-19T01:21:02.227Z,11.45
2017-12-19T01:23:30.362Z,12.63
2017-12-19T01:25:59.267Z,12.85
2017-12-19T01:28:27.401Z,10.37
2017-12-19T01:30:55.531Z,10.30
2017-12-19T01:33:23.692Z,15.18
2017-12-19T01:35:51.814Z,12.45
2017-12-19T01:38:19.972Z,10.75
2017-12-19T01:40:48.090Z,10.35
2017-12-19T01:43:16.220Z,12.48
2017-12-19T01:45:44.349Z,10.90
2017-12-19T01:48:12.482Z,9.65
2017-12-19T01:50:40.631Z,12.43
2017-12-19T01:53:08.736Z,9.55
2017-12-19T01:55:37.631Z,12.02
2017-12-19T01:58:05.903Z,11.70
2017-12-19T02:00:34.794Z,9.53
2017-12-19T02:03:03.687Z,11.07
2017-12-19T02:05:32.597Z,12.88
2017-12-19T02:08:00.716Z,12.35
2017-12-19T02:10:28.839Z,11.80
2017-12-19T02:12:56.994Z,12.40
2017-12-19T02:15:25.890Z,13.02
2017-12-19T02:17:54.770Z,13.60
2017-12-19T02:20:23.666Z,10.57
2017-12-19T02:22:52.597Z,10.88
2017-12-19T02:25:21.421Z,10.90
2017-12-19T02:27:49.573Z,10.03
2017-12-19T02:30:17.681Z,9.20
2017-12-19T02:32:46.573Z,10.27
2017-12-19T02:35:15.476Z,8.18
2017-12-19T02:37:44.365Z,9.88
2017-12-19T02:40:13.262Z,8.38
2017-12-19T02:42:53.163Z,7.37
2017-12-19T02:45:21.275Z,9.40
2017-12-19T02:47:49.399Z,10.07
2017-12-19T02:50:17.533Z,12.00
2017-12-19T02:52:45.672Z,9.25
2017-12-19T02:55:15.258Z,8.93
2017-12-19T02:57:43.400Z,7.77
2017-12-19T03:00:11.515Z,10.98
2017-12-19T03:02:39.645Z,8.77
2017-12-19T03:05:07.777Z,8.05
2017-12-19T03:07:36.665Z,9.35
2017-12-19T03:10:05.559Z,9.05
2017-12-19T03:12:34.426Z,7.50
2017-12-19T03:15:02.558Z,9.48
2017-12-19T03:17:30.703Z,9.63
2017-12-19T03:19:58.852Z,8.50
2017-12-19T03:22:27.744Z,8.35
2017-12-19T03:24:56.630Z,8.32
2017-12-19T03:27:25.508Z,9.67
2017-12-19T03:29:53.642Z,8.98
2017-12-19T03:32:21.755Z,10.05
2017-12-19T03:34:49.913Z,9.48
2017-12-19T03:37:18.027Z,9.02
2017-12-19T03:39:46.916Z,11.10
2017-12-19T03:42:15.796Z,9.50
2017-12-19T03:44:44.691Z,10.93
2017-12-19T03:47:13.602Z,7.55
2017-12-19T03:49:41.729Z,10.05
2017-12-19T03:52:09.864Z,8.18
2017-12-19T03:54:37.983Z,9.93
2017-12-19T03:57:06.097Z,15.07
2017-12-19T03:59:34.231Z,10.52
2017-12-19T04:02:03.126Z,10.93
2017-12-19T04:04:32.014Z,7.37
2017-12-19T04:07:00.901Z,8.35
2017-12-19T04:09:29.016Z,10.82
2017-12-19T04:11:57.135Z,9.13
2017-12-19T04:14:25.275Z,8.68
2017-12-19T04:16:55.439Z,10.43
2017-12-19T04:19:24.328Z,9.88
2017-12-19T04:21:53.223Z,11.63
2017-12-19T04:24:22.113Z,10.32
2017-12-19T04:26:51.002Z,9.75
2017-12-19T04:29:19.891Z,11.77
2017-12-19T04:31:48.830Z,11.23
2017-12-19T04:34:16.953Z,12.05
2017-12-19T04:36:45.864Z,9.73
2017-12-19T04:39:14.005Z,10.52
2017-12-19T04:41:42.123Z,15.52
2017-12-19T04:44:10.263Z,10.20
2017-12-19T04:46:39.143Z,8.85
2017-12-19T04:49:08.030Z,10.52
2017-12-19T04:51:36.910Z,9.95
2017-12-19T04:54:05.136Z,8.40
2017-12-19T04:56:34.130Z,11.50
2017-12-19T04:59:02.244Z,9.87
2017-12-19T05:01:30.365Z,12.37
2017-12-19T05:03:58.481Z,9.50
2017-12-19T05:06:26.719Z,9.68
2017-12-19T05:08:54.829Z,9.20
2017-12-19T05:11:22.958Z,9.55
2017-12-19T05:13:51.078Z,9.67
2017-12-19T05:16:19.212Z,9.20
2017-12-19T05:18:47.332Z,8.45
2017-12-19T05:21:15.453Z,9.60
2017-12-19T05:23:43.584Z,9.38
2017-12-19T05:26:12.453Z,9.00
2017-12-19T05:28:40.684Z,13.00
2017-12-19T05:31:08.788Z,9.60
2017-12-19T05:33:36.911Z,8.50
2017-12-19T05:36:05.611Z,9.25
2017-12-19T05:38:33.756Z,8.50
2017-12-19T05:41:02.630Z,9.50
2017-12-19T05:43:30.764Z,11.50
2017-12-19T05:45:58.914Z,10.43
2017-12-19T05:48:27.823Z,9.75
2017-12-19T05:50:56.667Z,9.68
2017-12-19T05:53:25.556Z,10.55
2017-12-19T05:55:54.458Z,12.25
2017-12-19T05:58:22.580Z,9.38
2017-12-19T06:00:50.703Z,12.53
2017-12-19T06:03:18.848Z,10.00
2017-12-19T06:05:47.064Z,9.82
2017-12-19T06:08:15.931Z,9.85
2017-12-19T06:10:44.811Z,8.80
2017-12-19T06:13:13.737Z,12.00
2017-12-19T06:15:41.860Z,12.30
2017-12-19T06:18:10.017Z,10.65
2017-12-19T06:20:38.155Z,12.02
2017-12-19T06:23:06.283Z,12.48
2017-12-19T06:25:35.191Z,10.65
2017-12-19T06:28:04.087Z,12.47
2017-12-19T06:30:32.967Z,12.80
2017-12-19T06:33:01.859Z,13.23
2017-12-19T06:35:30.778Z,10.77
2017-12-19T06:37:58.895Z,14.15
2017-12-19T06:40:27.038Z,11.75
2017-12-19T06:42:55.171Z,10.20
2017-12-19T06:45:23.303Z,9.88
2017-12-19T06:47:51.422Z,10.90
2017-12-19T06:50:19.565Z,11.35
2017-12-19T06:52:47.703Z,12.50
2017-12-19T06:55:15.829Z,12.75
2017-12-19T06:57:43.992Z,13.90
2017-12-19T07:00:12.911Z,11.98
2017-12-19T07:02:41.021Z,12.40
2017-12-19T07:05:09.158Z,12.40
2017-12-19T07:07:37.286Z,14.13
2017-12-19T07:10:05.699Z,16.05
2017-12-19T07:12:33.846Z,11.85
2017-12-19T07:15:02.759Z,14.38
2017-12-19T07:17:30.886Z,17.45
2017-12-19T07:19:59.020Z,14.65
2017-12-19T07:22:27.186Z,14.98
2017-12-19T07:24:55.302Z,15.23
2017-12-19T07:27:23.469Z,14.40
2017-12-19T07:29:51.593Z,14.98
2017-12-19T07:32:19.752Z,13.15
2017-12-19T07:34:48.661Z,15.23
2017-12-19T07:37:16.790Z,15.45
2017-12-19T07:39:44.952Z,16.50
2017-12-19T07:42:13.068Z,14.52
2017-12-19T07:44:41.188Z,16.75
2017-12-19T07:47:09.329Z,15.05
2017-12-19T07:49:37.598Z,15.45
2017-12-19T07:52:06.472Z,14.13
2017-12-19T07:54:34.616Z,14.43
2017-12-19T07:57:02.763Z,15.57
2017-12-19T07:59:30.907Z,16.08
2017-12-19T08:01:59.058Z,15.77
2017-12-19T08:04:27.190Z,16.98
2017-12-19T08:06:55.338Z,16.10
2017-12-19T08:09:24.462Z,17.75
2017-12-19T08:11:52.591Z,17.55
2017-12-19T08:14:20.794Z,18.23
2017-12-19T08:16:48.915Z,18.40
2017-12-19T08:19:17.823Z,18.80
2017-12-19T08:21:45.946Z,21.65
2017-12-19T08:24:14.075Z,17.23
2017-12-19T08:26:42.195Z,23.12
2017-12-19T08:29:10.332Z,22.43
2017-12-19T08:31:38.483Z,21.58
2017-12-19T08:34:06.674Z,22.35
2017-12-19T08:36:35.787Z,21.45
2017-12-19T08:39:03.913Z,20.52
2017-12-19T08:41:32.831Z,23.52
2017-12-19T08:44:00.978Z,21.42
2017-12-19T08:46:29.889Z,24.90
2017-12-19T08:48:58.044Z,21.62
2017-12-19T08:51:26.946Z,22.75
2017-12-19T08:53:55.834Z,19.12
2017-12-19T08:56:23.972Z,22.00
2017-12-19T08:58:52.117Z,24.20
2017-12-19T09:01:20.245Z,24.67
2017-12-19T09:03:48.550Z,20.62
2017-12-19T09:06:16.655Z,22.55
2017-12-19T09:08:44.802Z,21.30
2017-12-19T09:11:12.931Z,23.20
2017-12-19T09:13:41.826Z,24.48
2017-12-19T09:16:10.743Z,21.40
2017-12-19T09:18:38.907Z,27.02
2017-12-19T09:21:07.059Z,24.23
2017-12-19T09:23:35.946Z,25.33
2017-12-19T09:26:04.845Z,26.40
2017-12-19T09:28:33.758Z,23.33
2017-12-19T09:31:01.941Z,28.10
2017-12-19T09:33:30.088Z,26.67
2017-12-19T09:35:58.975Z,27.55
2017-12-19T09:38:27.868Z,29.67
2017-12-19T09:40:55.984Z,28.87
2017-12-19T09:43:24.123Z,31.33
2017-12-19T09:45:52.229Z,27.27
2017-12-19T09:48:20.384Z,27.05
2017-12-19T09:50:48.501Z,29.77
2017-12-19T09:53:16.650Z,31.20
2017-12-19T09:55:44.773Z,31.33
2017-12-19T09:58:12.909Z,30.57
2017-12-19T10:00:41.080Z,27.90
2017-12-19T10:03:09.179Z,29.58
2017-12-19T10:05:37.337Z,26.90
2017-12-19T10:08:07.374Z,28.60
2017-12-19T10:10:36.285Z,29.52
2017-12-19T10:13:04.395Z,29.43
2017-12-19T10:15:32.544Z,29.05
2017-12-19T10:18:00.681Z,28.65
2017-12-19T10:20:28.823Z,30.33
2017-12-19T10:22:56.959Z,29.37
2017-12-19T10:25:25.084Z,28.83
2017-12-19T10:27:54.007Z,29.63
2017-12-19T10:30:22.137Z,30.42
2017-12-19T10:32:51.075Z,31.30
2017-12-19T10:35:19.207Z,28.15
2017-12-19T10:37:48.149Z,28.55
2017-12-19T10:40:16.325Z,28.20
2017-12-19T10:42:44.468Z,29.00
2017-12-19T10:45:12.640Z,28.05
2017-12-19T10:47:40.766Z,31.12
2017-12-19T10:50:08.924Z,30.65
2017-12-19T10:52:37.027Z,33.50
2017-12-19T10:55:05.950Z,28.27
2017-12-19T10:57:34.099Z,36.30
2017-12-19T11:00:03.930Z,33.85
2017-12-19T11:02:32.818Z,37.80
2017-12-19T11:05:00.946Z,36.97
2017-12-19T11:07:29.083Z,35.05
2017-12-19T11:09:57.218Z,33.67
2017-12-19T11:12:26.970Z,37.37
2017-12-19T11:14:55.110Z,33.45
2017-12-19T11:17:23.222Z,34.38
2017-12-19T11:19:51.381Z,33.42
2017-12-19T11:22:19.499Z,35.80
2017-12-19T11:24:47.644Z,32.85
2017-12-19T11:27:15.766Z,34.00
2017-12-19T11:29:43.946Z,34.92
2017-12-19T11:32:12.111Z,39.15
2017-12-19T11:34:41.035Z,36.42
2017-12-19T11:37:09.219Z,34.30
2017-12-19T11:39:37.593Z,29.75
2017-12-19T11:42:05.749Z,27.20
2017-12-19T11:44:33.874Z,32.75
2017-12-19T11:47:02.035Z,31.80
2017-12-19T11:49:30.148Z,31.90
2017-12-19T11:51:59.175Z,31.42
2017-12-19T11:54:27.316Z,26.35
2017-12-19T11:56:55.460Z,27.55
2017-12-19T11:59:23.589Z,28.73
2017-12-19T12:01:54.273Z,29.67
2017-12-19T12:04:22.391Z,30.10
2017-12-19T12:06:50.539Z,29.02
2017-12-19T12:09:18.687Z,32.28
2017-12-19T12:11:47.588Z,29.15
2017-12-19T12:14:16.903Z,27.40
2017-12-19T12:16:45.784Z,28.60
2017-12-19T12:19:14.700Z,27.87
2017-12-19T12:21:42.826Z,28.12
2017-12-19T12:24:10.977Z,27.87
2017-12-19T12:26:39.117Z,25.85
2017-12-19T12:29:07.253Z,25.37
2017-12-19T12:31:36.172Z,26.48
2017-12-19T12:34:04.287Z,29.05
2017-12-19T12:36:32.459Z,26.52
2017-12-19T12:39:00.599Z,22.35
2017-12-19T12:41:28.741Z,30.62
2017-12-19T12:43:57.627Z,24.63
2017-12-19T12:46:26.517Z,26.65
2017-12-19T12:48:56.043Z,27.55
2017-12-19T12:51:24.187Z,23.52
2017-12-19T12:53:53.096Z,25.73
2017-12-19T12:56:21.262Z,26.37
2017-12-19T12:58:50.151Z,26.75
2017-12-19T13:01:20.912Z,24.17
2017-12-19T13:03:49.095Z,24.52
2017-12-19T13:06:17.226Z,25.08
2017-12-19T13:08:46.112Z,24.05
2017-12-19T13:11:15.044Z,28.92
2017-12-19T13:13:43.164Z,27.37
2017-12-19T13:16:12.140Z,27.85
2017-12-19T13:18:40.246Z,29.70
2017-12-19T13:21:08.430Z,33.22
2017-12-19T13:23:36.602Z,33.55
2017-12-19T13:26:04.735Z,25.37
2017-12-19T13:28:32.914Z,23.03
2017-12-19T13:31:01.034Z,22.60
2017-12-19T13:33:29.209Z,21.48
2017-12-19T13:35:57.311Z,12.68
2017-12-19T13:38:25.431Z,13.77
2017-12-19T13:40:53.583Z,13.73
2017-12-19T13:43:22.482Z,15.10
2017-12-19T13:45:50.704Z,13.00
2017-12-19T13:48:18.836Z,16.33
2017-12-19T13:50:46.976Z,15.00
2017-12-19T13:53:15.099Z,16.58
2017-12-19T13:55:43.222Z,18.12
2017-12-19T13:58:11.379Z,18.65
2017-12-19T14:00:39.527Z,21.80
2017-12-19T14:03:07.699Z,24.12
2017-12-19T14:05:35.829Z,19.80
2017-12-19T14:08:04.793Z,23.70
2017-12-19T14:10:32.894Z,22.67
2017-12-19T14:13:01.076Z,30.60
2017-12-19T14:15:29.217Z,22.52
2017-12-19T14:17:57.352Z,26.27
2017-12-19T14:20:25.496Z,29.60
2017-12-19T14:22:53.647Z,24.67
2017-12-19T14:25:21.788Z,28.15
2017-12-19T14:27:50.004Z,24.83
2017-12-19T14:30:18.906Z,23.45
2017-12-19T14:32:47.092Z,28.80
2017-12-19T14:35:15.203Z,24.42
2017-12-19T14:37:43.346Z,23.08
2017-12-19T14:40:11.486Z,23.75
2017-12-19T14:42:39.650Z,27.35
2017-12-19T14:45:07.767Z,27.02
2017-12-19T14:47:35.928Z,23.75
2017-12-19T14:50:04.058Z,27.95
2017-12-19T14:52:32.957Z,28.87
2017-12-19T14:55:01.914Z,29.55
2017-12-19T14:57:30.060Z,26.80
2017-12-19T14:59:58.203Z,29.17
2017-12-19T15:02:27.217Z,29.60
2017-12-19T15:04:55.340Z,26.20
2017-12-19T15:07:24.266Z,29.42
2017-12-19T15:09:52.397Z,26.90
2017-12-19T15:12:20.635Z,24.08
2017-12-19T15:14:48.761Z,27.33
2017-12-19T15:17:16.909Z,30.08
2017-12-19T15:19:45.035Z,29.42
2017-12-19T15:22:13.203Z,30.08
2017-12-19T15:24:42.297Z,29.75
2017-12-19T15:27:10.454Z,35.70
2017-12-19T15:29:39.350Z,30.75
2017-12-19T15:32:08.210Z,32.22
2017-12-19T15:34:36.366Z,31.45
2017-12-19T15:37:05.265Z,35.92
2017-12-19T15:39:33.408Z,33.75
2017-12-19T15:42:01.547Z,31.23
2017-12-19T15:44:29.719Z,36.72
2017-12-19T15:46:57.834Z,28.08
2017-12-19T15:49:26.724Z,30.83
2017-12-19T15:51:54.872Z,31.15
2017-12-19T15:54:23.006Z,30.65
2017-12-19T15:56:51.932Z,33.33
2017-12-19T15:59:20.067Z,29.50
2017-12-19T16:01:48.256Z,30.97
2017-12-19T16:04:17.145Z,33.20
2017-12-19T16:06:46.042Z,30.10
2017-12-19T16:09:14.211Z,30.10
2017-12-19T16:11:42.356Z,37.40
2017-12-19T16:14:10.547Z,35.97
2017-12-19T16:16:38.677Z,35.58
2017-12-19T16:19:06.913Z,36.35
2017-12-19T16:21:35.782Z,43.22
2017-12-19T16:24:04.687Z,38.00
2017-12-19T16:26:32.827Z,38.40
2017-12-19T16:29:00.962Z,37.13
2017-12-19T16:31:29.095Z,34.40
2017-12-19T16:33:58.011Z,36.65
2017-12-19T16:36:26.201Z,37.10
2017-12-19T16:38:54.313Z,35.85
2017-12-19T16:41:22.435Z,36.58
2017-12-19T16:43:50.581Z,34.10
2017-12-19T16:46:18.743Z,39.60
2017-12-19T16:48:47.656Z,35.72
2017-12-19T16:51:15.803Z,31.92
2017-12-19T16:53:43.926Z,39.20
2017-12-19T16:56:12.064Z,36.90
2017-12-19T16:58:40.238Z,41.97
2017-12-19T17:01:09.146Z,43.43
2017-12-19T17:03:37.303Z,37.75
2017-12-19T17:06:05.455Z,35.88
2017-12-19T17:08:34.685Z,44.40
2017-12-19T17:11:02.804Z,36.17
2017-12-19T17:13:31.719Z,35.80
2017-12-19T17:16:00.636Z,33.50
2017-12-19T17:18:28.781Z,40.58
2017-12-19T17:20:56.911Z,41.75
2017-12-19T17:23:25.204Z,37.75
2017-12-19T17:25:53.677Z,37.45
2017-12-19T17:28:21.823Z,36.83
2017-12-19T17:30:49.979Z,32.85
2017-12-19T17:33:18.159Z,36.92
2017-12-19T17:35:46.546Z,33.97
2017-12-19T17:38:15.219Z,38.08
2017-12-19T17:40:43.388Z,33.40
2017-12-19T17:43:11.698Z,32.67
2017-12-19T17:45:39.871Z,35.55
2017-12-19T17:48:08.080Z,37.30
2017-12-19T17:50:37.723Z,36.15
2017-12-19T17:53:05.968Z,37.05
2017-12-19T17:55:34.075Z,40.30
2017-12-19T17:58:03.107Z,37.53
2017-12-19T18:00:32.336Z,39.75
2017-12-19T18:03:01.258Z,34.90
2017-12-19T18:05:29.395Z,36.50
2017-12-19T18:07:58.649Z,40.30
2017-12-19T18:10:26.850Z,41.22
2017-12-19T18:12:55.170Z,37.60
2017-12-19T18:15:23.480Z,35.88
2017-12-19T18:17:51.671Z,40.12
2017-12-19T18:20:19.815Z,37.45
2017-12-19T18:22:47.969Z,37.58
2017-12-19T18:25:16.421Z,40.65
2017-12-19T18:27:45.289Z,43.60
2017-12-19T18:30:14.340Z,38.85
2017-12-19T18:32:42.627Z,41.67
2017-12-19T18:35:10.810Z,36.03
2017-12-19T18:37:38.957Z,39.10
2017-12-19T18:40:07.111Z,38.28
2017-12-19T18:42:35.301Z,37.20
2017-12-19T18:45:03.616Z,40.00
2017-12-19T18:47:31.756Z,36.88
2017-12-19T18:49:59.878Z,38.13
2017-12-19T18:52:28.775Z,41.45
2017-12-19T18:54:57.710Z,37.97
2017-12-19T18:57:25.891Z,41.83
2017-12-19T18:59:54.227Z,40.53
2017-12-19T19:02:23.397Z,34.03
2017-12-19T19:04:51.546Z,37.53
2017-12-19T19:07:19.795Z,37.45
2017-12-19T19:09:47.921Z,40.12
2017-12-19T19:12:16.093Z,44.65
2017-12-19T19:14:44.333Z,40.45
2017-12-19T19:17:12.580Z,35.13
2017-12-19T19:19:40.773Z,38.53
2017-12-19T19:22:08.946Z,35.05
2017-12-19T19:24:37.100Z,34.22
2017-12-19T19:27:05.979Z,32.58
2017-12-19T19:29:34.128Z,36.38
2017-12-19T19:32:02.276Z,34.50
2017-12-19T19:34:30.431Z,32.20
2017-12-19T19:36:58.703Z,33.90
2017-12-19T19:39:27.136Z,39.80
2017-12-19T19:41:56.193Z,33.75
2017-12-19T19:44:24.357Z,33.72
2017-12-19T19:46:52.552Z,35.72
2017-12-19T19:49:20.684Z,38.45
2017-12-19T19:51:49.114Z,35.78
2017-12-19T19:54:17.297Z,37.83
2017-12-19T19:56:45.585Z,35.95
2017-12-19T19:59:14.617Z,34.97
2017-12-19T20:01:42.831Z,35.40
2017-12-19T20:04:10.939Z,31.80
2017-12-19T20:06:39.108Z,31.52
2017-12-19T20:09:07.379Z,31.12
2017-12-19T20:11:36.431Z,28.02
2017-12-19T20:14:04.631Z,30.97
2017-12-19T20:16:33.563Z,28.25
2017-12-19T20:19:01.764Z,30.00
2017-12-19T20:21:29.941Z,33.80
2017-12-19T20:23:58.189Z,31.00
2017-12-19T20:26:26.512Z,29.65
2017-12-19T20:28:54.694Z,35.53
2017-12-19T20:31:24.633Z,30.27
2017-12-19T20:33:52.856Z,35.40
2017-12-19T20:36:21.312Z,39.47
2017-12-19T20:38:49.467Z,33.63
2017-12-19T20:41:17.653Z,32.15
2017-12-19T20:43:45.861Z,33.03
2017-12-19T20:46:13.993Z,33.22
2017-12-19T20:48:43.410Z,38.10
2017-12-19T20:51:11.578Z,34.78
2017-12-19T20:53:39.754Z,37.45
2017-12-19T20:56:07.936Z,29.73
2017-12-19T20:58:36.393Z,33.93
2017-12-19T21:01:04.642Z,34.85
2017-12-19T21:03:32.857Z,31.62
2017-12-19T21:06:01.317Z,28.02
2017-12-19T21:08:29.476Z,35.95
2017-12-19T21:10:57.676Z,36.65
2017-12-19T21:13:25.833Z,36.73
2017-12-19T21:15:54.240Z,35.50
2017-12-19T21:18:22.497Z,36.53
2017-12-19T21:20:51.607Z,38.47
2017-12-19T21:23:20.576Z,40.28
2017-12-19T21:25:48.753Z,34.22
2017-12-19T21:28:17.026Z,30.10
2017-12-19T21:30:45.474Z,29.60
2017-12-19T21:33:14.850Z,31.02
2017-12-19T21:35:43.292Z,33.42
2017-12-19T21:38:11.732Z,28.05
2017-12-19T21:40:40.465Z,32.10
2017-12-19T21:43:09.368Z,29.67
2017-12-19T21:45:38.284Z,25.85
2017-12-19T21:48:09.769Z,29.00
2017-12-19T21:50:38.917Z,25.92
2017-12-19T21:53:07.930Z,27.30
2017-12-19T21:55:36.037Z,21.90
2017-12-19T21:58:09.095Z,20.20
2017-12-19T22:00:37.232Z,24.60
2017-12-19T22:03:05.408Z,22.48
2017-12-19T22:05:33.576Z,22.90
2017-12-19T22:10:34.974Z,23.25
2017-12-19T22:13:03.847Z,23.43
2017-12-19T22:15:32.745Z,18.80
2017-12-19T22:18:01.654Z,19.73
2017-12-19T22:20:37.843Z,20.55
2017-12-19T22:23:06.030Z,20.62
2017-12-19T22:25:34.911Z,23.70
2017-12-19T22:28:10.796Z,20.10
2017-12-19T22:30:39.140Z,24.10
2017-12-19T22:33:07.276Z,19.17
2017-12-19T22:35:35.446Z,20.55
2017-12-19T22:38:08.886Z,17.55
2017-12-19T22:40:37.076Z,20.08
2017-12-19T22:43:05.188Z,15.60
2017-12-19T22:45:33.342Z,16.40
2017-12-19T22:48:01.503Z,20.10
2017-12-19T22:50:36.140Z,22.42
2017-12-19T22:53:04.262Z,19.77
2017-12-19T22:55:32.428Z,26.85
2017-12-19T22:58:00.586Z,20.42
2017-12-19T23:00:28.922Z,19.73
2017-12-19T23:02:57.839Z,17.62
2017-12-19T23:05:26.758Z,21.77
2017-12-19T23:07:55.068Z,22.20
2017-12-19T23:10:23.459Z,17.98
2017-12-19T23:12:51.618Z,19.50
2017-12-19T23:15:19.756Z,19.92
2017-12-19T23:17:47.919Z,21.35
2017-12-19T23:20:16.057Z,20.27
2017-12-19T23:22:44.247Z,22.90
2017-12-19T23:25:12.432Z,19.52
2017-12-19T23:27:40.635Z,19.08
2017-12-19T23:30:10.879Z,19.87
2017-12-19T23:32:39.038Z,21.35
2017-12-19T23:35:07.183Z,19.17
2017-12-19T23:37:35.354Z,21.37
2017-12-19T23:40:10.629Z,18.23
2017-12-19T23:42:38.793Z,17.63
2017-12-19T23:45:07.684Z,17.00
2017-12-19T23:47:36.602Z,18.50
2017-12-19T23:50:09.252Z,15.85
2017-12-19T23:52:37.403Z,17.92
2017-12-19T23:55:05.527Z,17.02
2017-12-19T23:57:34.551Z,17.12
